createdAt,value
2023-03-26T00:01:32.607Z,12.35
2023-03-26T00:03:58.997Z,12.29
2023-03-26T00:06:25.448Z,12.23
2023-03-26T00:08:51.963Z,12.31
2023-03-26T00:11:18.340Z,12.40
2023-03-26T00:13:44.721Z,12.44
2023-03-26T00:16:11.174Z,12.49
2023-03-26T00:18:37.588Z,12.55
2023-03-26T00:21:04.036Z,12.55
2023-03-26T00:23:39.556Z,12.54
2023-03-26T00:26:05.996Z,12.56
2023-03-26T00:28:32.380Z,12.57
2023-03-26T00:31:01.203Z,12.56
2023-03-26T00:33:27.652Z,12.54
2023-03-26T00:35:54.324Z,12.10
2023-03-26T00:38:20.958Z,12.08
2023-03-26T00:40:47.339Z,12.02
2023-03-26T00:43:13.714Z,11.83
2023-03-26T00:45:40.082Z,12.02
2023-03-26T00:48:08.061Z,11.89
2023-03-26T00:50:34.583Z,11.90
2023-03-26T00:53:00.973Z,12.05
2023-03-26T00:55:27.389Z,12.19
2023-03-26T00:57:53.717Z,12.25
2023-03-26T01:00:20.130Z,12.35
2023-03-26T01:02:46.542Z,12.31
2023-03-26T01:05:13.010Z,12.18
2023-03-26T01:07:39.431Z,12.24
2023-03-26T01:10:05.780Z,12.32
2023-03-26T01:12:32.124Z,12.24
2023-03-26T01:14:58.526Z,12.29
2023-03-26T01:17:24.989Z,12.33
2023-03-26T01:19:51.496Z,12.44
2023-03-26T01:22:17.869Z,12.48
2023-03-26T01:24:44.206Z,12.51
2023-03-26T01:27:10.520Z,12.56
2023-03-26T01:29:36.860Z,12.60
2023-03-26T01:32:03.224Z,12.61
2023-03-26T01:34:31.675Z,12.64
2023-03-26T01:36:58.089Z,12.62
2023-03-26T01:39:24.491Z,12.63
2023-03-26T01:41:50.855Z,12.63
2023-03-26T01:44:18.311Z,12.57
2023-03-26T01:46:44.831Z,12.60
2023-03-26T01:49:11.300Z,12.62
2023-03-26T01:51:37.713Z,12.57
2023-03-26T01:54:04.115Z,12.47
2023-03-26T01:56:30.637Z,12.52
2023-03-26T01:58:57.020Z,12.55
2023-03-26T02:01:23.487Z,12.58
2023-03-26T02:03:49.968Z,12.44
2023-03-26T02:06:16.374Z,12.47
2023-03-26T02:08:42.737Z,12.50
2023-03-26T02:11:09.822Z,12.53
2023-03-26T02:13:36.252Z,12.48
2023-03-26T02:16:02.705Z,12.44
2023-03-26T02:18:29.076Z,12.46
2023-03-26T02:20:58.177Z,12.48
2023-03-26T02:23:26.944Z,12.50
2023-03-26T02:25:53.552Z,12.37
2023-03-26T02:28:20.013Z,12.46
2023-03-26T02:30:46.392Z,12.53
2023-03-26T02:33:14.761Z,12.53
2023-03-26T02:35:41.336Z,12.40
2023-03-26T02:38:07.782Z,12.44
2023-03-26T02:40:34.198Z,12.40
2023-03-26T02:43:00.575Z,12.43
2023-03-26T02:45:27.140Z,12.50
2023-03-26T02:47:53.614Z,12.55
2023-03-26T02:50:20.075Z,12.56
2023-03-26T02:52:46.449Z,12.35
2023-03-26T02:55:12.836Z,12.22
2023-03-26T02:57:39.154Z,12.15
2023-03-26T03:00:05.533Z,11.97
2023-03-26T03:02:31.926Z,11.96
2023-03-26T03:04:58.752Z,12.04
2023-03-26T03:07:25.121Z,12.21
2023-03-26T03:09:51.485Z,12.29
2023-03-26T03:12:17.862Z,12.29
2023-03-26T03:14:44.228Z,12.34
2023-03-26T03:17:12.993Z,12.38
2023-03-26T03:19:39.422Z,12.41
2023-03-26T03:22:05.772Z,12.46
2023-03-26T03:24:32.132Z,12.48
2023-03-26T03:26:58.561Z,12.49
2023-03-26T03:29:24.926Z,12.53
2023-03-26T03:31:53.070Z,12.55
2023-03-26T03:34:19.428Z,12.61
2023-03-26T03:36:45.795Z,12.61
2023-03-26T03:39:14.653Z,12.50
2023-03-26T03:41:43.758Z,12.51
2023-03-26T03:44:10.156Z,12.54
2023-03-26T03:46:36.716Z,12.62
2023-03-26T03:49:03.185Z,12.61
2023-03-26T03:51:29.669Z,12.45
2023-03-26T03:53:56.061Z,12.51
2023-03-26T03:56:22.458Z,12.58
2023-03-26T03:58:48.851Z,12.38
2023-03-26T04:01:15.347Z,12.40
2023-03-26T04:03:41.943Z,12.53
2023-03-26T04:06:08.636Z,12.53
2023-03-26T04:08:35.037Z,12.59
2023-03-26T04:11:01.478Z,12.50
2023-03-26T04:13:27.887Z,12.11
2023-03-26T04:15:54.493Z,12.25
2023-03-26T04:18:21.173Z,12.36
2023-03-26T04:20:47.690Z,12.34
2023-03-26T04:23:14.073Z,12.44
2023-03-26T04:25:40.469Z,12.57
2023-03-26T04:28:06.836Z,12.65
2023-03-26T04:30:33.209Z,12.69
2023-03-26T04:32:59.672Z,12.72
2023-03-26T04:35:26.112Z,12.72
2023-03-26T04:37:52.518Z,12.74
2023-03-26T04:40:18.899Z,12.67
2023-03-26T04:42:45.286Z,12.72
2023-03-26T04:45:11.669Z,12.73
2023-03-26T04:47:38.079Z,12.80
2023-03-26T04:50:04.483Z,12.77
2023-03-26T04:52:30.883Z,12.79
2023-03-26T04:54:57.270Z,12.79
2023-03-26T04:57:23.645Z,12.80
2023-03-26T04:59:50.085Z,12.82
2023-03-26T05:02:16.482Z,12.80
2023-03-26T05:04:42.896Z,12.79
2023-03-26T05:07:09.336Z,12.81
2023-03-26T05:09:35.702Z,12.77
2023-03-26T05:12:02.080Z,12.74
2023-03-26T05:14:28.434Z,12.70
2023-03-26T05:16:57.983Z,12.73
2023-03-26T05:19:24.384Z,12.72
2023-03-26T05:21:50.994Z,12.75
2023-03-26T05:24:18.036Z,12.67
2023-03-26T05:26:44.380Z,12.68
2023-03-26T05:29:10.788Z,12.53
2023-03-26T05:31:37.230Z,12.56
2023-03-26T05:34:03.589Z,12.58
2023-03-26T05:36:29.982Z,12.56
2023-03-26T05:38:56.442Z,12.56
2023-03-26T05:41:23.224Z,12.55
2023-03-26T05:43:49.583Z,12.52
2023-03-26T05:46:15.985Z,12.47
2023-03-26T05:48:42.399Z,12.45
2023-03-26T05:51:08.847Z,12.44
2023-03-26T05:53:35.220Z,12.43
2023-03-26T05:56:01.558Z,12.37
2023-03-26T05:58:27.937Z,12.38
2023-03-26T06:00:54.616Z,12.24
2023-03-26T06:03:21.206Z,12.27
2023-03-26T06:05:47.629Z,12.31
2023-03-26T06:08:13.981Z,12.32
2023-03-26T06:10:40.390Z,12.34
2023-03-26T06:15:47.085Z,12.33
2023-03-26T06:18:13.586Z,12.05
2023-03-26T06:20:40.009Z,12.05
2023-03-26T06:23:08.892Z,12.21
2023-03-26T06:25:35.286Z,12.11
2023-03-26T06:28:03.047Z,12.17
2023-03-26T06:30:29.434Z,12.02
2023-03-26T06:32:55.934Z,11.64
2023-03-26T06:35:22.311Z,11.84
2023-03-26T06:37:48.793Z,11.98
2023-03-26T06:40:15.957Z,12.06
2023-03-26T06:43:08.227Z,12.10
2023-03-26T06:45:28.948Z,12.11
2023-03-26T06:47:56.819Z,12.11
2023-03-26T06:50:23.348Z,12.07
2023-03-26T06:52:49.797Z,11.97
2023-03-26T06:55:16.294Z,12.00
2023-03-26T06:57:42.668Z,12.03
2023-03-26T07:00:09.065Z,12.06
2023-03-26T07:02:35.441Z,12.13
2023-03-26T07:05:01.820Z,12.16
2023-03-26T07:07:28.170Z,12.18
2023-03-26T07:09:54.582Z,12.15
2023-03-26T07:12:21.019Z,12.03
2023-03-26T07:14:47.381Z,12.03
2023-03-26T07:17:13.801Z,11.83
2023-03-26T07:19:40.234Z,11.87
2023-03-26T07:22:06.670Z,12.01
2023-03-26T07:24:33.053Z,12.06
2023-03-26T07:26:59.433Z,11.82
2023-03-26T07:29:25.852Z,11.84
2023-03-26T07:32:00.046Z,11.93
2023-03-26T07:34:26.532Z,11.89
2023-03-26T07:36:52.853Z,11.90
2023-03-26T07:39:19.262Z,12.00
2023-03-26T07:41:45.633Z,12.04
2023-03-26T07:44:12.053Z,12.10
2023-03-26T07:46:38.605Z,12.13
2023-03-26T07:49:04.999Z,12.13
2023-03-26T07:51:31.394Z,12.11
2023-03-26T07:53:57.810Z,11.93
2023-03-26T07:56:24.200Z,11.79
2023-03-26T07:58:50.641Z,11.69
2023-03-26T08:01:17.066Z,11.59
2023-03-26T08:03:43.521Z,11.50
2023-03-26T08:06:10.047Z,11.56
2023-03-26T08:08:36.394Z,11.79
2023-03-26T08:11:02.800Z,11.98
2023-03-26T08:13:29.145Z,12.09
2023-03-26T08:15:55.567Z,11.99
2023-03-26T08:18:21.962Z,12.11
2023-03-26T08:20:48.381Z,12.10
2023-03-26T08:23:14.993Z,12.15
2023-03-26T08:25:41.448Z,12.23
2023-03-26T08:28:07.873Z,12.16
2023-03-26T08:30:34.238Z,11.95
2023-03-26T08:33:00.786Z,11.68
2023-03-26T08:35:27.226Z,11.71
2023-03-26T08:37:53.603Z,11.83
2023-03-26T08:40:19.973Z,11.45
2023-03-26T08:42:46.359Z,11.72
2023-03-26T08:45:12.743Z,11.71
2023-03-26T08:47:39.191Z,11.68
2023-03-26T08:50:05.609Z,11.72
2023-03-26T08:52:32.053Z,11.68
2023-03-26T08:54:58.418Z,11.80
2023-03-26T08:57:24.795Z,11.79
2023-03-26T08:59:51.176Z,11.71
2023-03-26T09:02:17.613Z,11.81
2023-03-26T09:04:43.984Z,11.81
2023-03-26T09:07:10.345Z,11.89
2023-03-26T09:09:36.666Z,11.97
2023-03-26T09:12:03.058Z,12.01
2023-03-26T09:14:29.472Z,12.00
2023-03-26T09:16:55.938Z,12.07
2023-03-26T09:19:22.350Z,12.12
2023-03-26T09:21:48.710Z,12.13
2023-03-26T09:24:15.163Z,12.14
2023-03-26T09:26:41.617Z,11.97
2023-03-26T09:29:08.010Z,11.96
2023-03-26T09:31:34.440Z,12.01
2023-03-26T09:34:00.896Z,12.06
2023-03-26T09:36:27.284Z,12.12
2023-03-26T09:38:53.704Z,12.12
2023-03-26T09:41:20.078Z,12.10
2023-03-26T09:43:46.529Z,12.16
2023-03-26T09:46:12.985Z,12.23
2023-03-26T09:48:39.437Z,12.28
2023-03-26T09:51:05.872Z,12.30
2023-03-26T09:53:32.270Z,12.39
2023-03-26T09:55:58.637Z,12.51
2023-03-26T09:58:24.989Z,12.54
2023-03-26T10:00:51.617Z,12.55
2023-03-26T10:03:18.082Z,12.27
2023-03-26T10:05:44.483Z,11.97
2023-03-26T10:08:10.975Z,12.06
2023-03-26T10:10:40.037Z,11.85
2023-03-26T10:13:14.551Z,11.83
2023-03-26T10:15:41.606Z,11.77
2023-03-26T10:18:26.980Z,11.83
2023-03-26T10:20:54.783Z,11.84
2023-03-26T10:23:21.256Z,11.92
2023-03-26T10:25:47.601Z,12.01
2023-03-26T10:28:14.047Z,12.07
2023-03-26T10:30:40.552Z,11.83
2023-03-26T10:33:06.969Z,11.94
2023-03-26T10:35:33.376Z,12.07
2023-03-26T10:37:59.761Z,12.26
2023-03-26T10:40:27.888Z,12.33
2023-03-26T10:42:54.364Z,12.29
2023-03-26T10:45:20.762Z,12.29
2023-03-26T10:47:47.178Z,11.77
2023-03-26T10:50:14.563Z,11.45
2023-03-26T10:52:49.114Z,11.66
2023-03-26T10:55:15.480Z,11.79
2023-03-26T10:57:41.827Z,11.89
2023-03-26T11:00:08.278Z,11.95
2023-03-26T11:02:34.747Z,11.96
2023-03-26T11:05:01.191Z,12.00
2023-03-26T11:07:27.666Z,12.07
2023-03-26T11:09:54.057Z,12.07
2023-03-26T11:12:26.626Z,12.06
2023-03-26T11:14:54.931Z,11.94
2023-03-26T11:17:40.153Z,11.95
2023-03-26T11:20:07.807Z,11.97
2023-03-26T11:22:34.149Z,11.99
2023-03-26T11:25:00.523Z,12.04
2023-03-26T11:27:26.919Z,12.11
2023-03-26T11:29:53.279Z,12.12
2023-03-26T11:32:19.680Z,12.17
2023-03-26T11:34:46.278Z,12.16
2023-03-26T11:37:12.682Z,11.92
2023-03-26T11:39:39.084Z,12.02
2023-03-26T11:42:05.515Z,12.16
2023-03-26T11:44:31.904Z,12.31
2023-03-26T11:46:58.341Z,12.30
2023-03-26T11:49:24.758Z,12.34
2023-03-26T11:51:51.196Z,12.43
2023-03-26T11:54:17.555Z,12.51
2023-03-26T11:57:05.527Z,12.62
2023-03-26T11:59:30.259Z,12.77
2023-03-26T12:01:56.772Z,12.94
2023-03-26T12:04:23.394Z,13.14
2023-03-26T12:06:49.821Z,13.25
2023-03-26T12:09:16.212Z,13.18
2023-03-26T12:11:42.565Z,13.07
2023-03-26T12:14:11.141Z,13.05
2023-03-26T12:16:37.545Z,13.05
2023-03-26T12:19:03.976Z,13.14
2023-03-26T12:21:31.392Z,13.20
2023-03-26T12:23:57.769Z,13.06
2023-03-26T12:26:24.214Z,13.26
2023-03-26T12:28:50.633Z,13.39
2023-03-26T12:31:17.095Z,13.50
2023-03-26T12:33:43.481Z,13.61
2023-03-26T12:36:09.858Z,13.69
2023-03-26T12:38:39.062Z,13.70
2023-03-26T12:41:05.905Z,13.58
2023-03-26T12:44:49.800Z,13.61
2023-03-26T12:47:59.336Z,13.55
2023-03-26T12:49:05.346Z,13.43
2023-03-26T12:51:31.806Z,13.10
2023-03-26T12:53:58.386Z,13.24
2023-03-26T12:56:24.822Z,13.35
2023-03-26T12:58:51.417Z,13.44
2023-03-26T13:01:17.868Z,13.42
2023-03-26T13:03:44.247Z,13.27
2023-03-26T13:06:10.716Z,13.19
2023-03-26T13:08:37.148Z,12.99
2023-03-26T13:11:03.580Z,12.89
2023-03-26T13:13:29.944Z,11.99
2023-03-26T13:15:56.386Z,11.08
2023-03-26T13:18:22.778Z,10.21
2023-03-26T13:20:49.174Z,9.31
2023-03-26T13:23:15.628Z,8.93
2023-03-26T13:25:42.121Z,8.45
2023-03-26T13:28:11.241Z,7.59
2023-03-26T13:33:28.227Z,7.67
2023-03-26T13:36:00.661Z,8.04
2023-03-26T13:38:33.212Z,8.34
2023-03-26T13:40:59.804Z,8.52
2023-03-26T13:43:26.260Z,8.55
2023-03-26T13:45:52.738Z,8.40
2023-03-26T13:48:19.216Z,8.54
2023-03-26T13:50:45.590Z,8.67
2023-03-26T13:53:11.984Z,8.89
2023-03-26T13:55:38.442Z,9.11
2023-03-26T13:58:04.901Z,9.14
2023-03-26T14:00:31.344Z,9.31
2023-03-26T14:02:57.844Z,9.49
2023-03-26T14:05:25.363Z,9.57
2023-03-26T14:07:51.694Z,9.58
2023-03-26T14:10:18.110Z,9.65
2023-03-26T14:12:44.549Z,9.84
2023-03-26T14:15:10.961Z,9.89
2023-03-26T14:17:37.359Z,9.85
2023-03-26T14:20:03.840Z,9.82
2023-03-26T14:22:30.302Z,9.90
2023-03-26T14:24:56.714Z,9.93
2023-03-26T14:27:23.027Z,9.94
2023-03-26T14:29:56.697Z,9.95
2023-03-26T14:32:24.238Z,10.07
2023-03-26T14:34:51.108Z,10.23
2023-03-26T14:37:27.386Z,10.38
2023-03-26T14:39:54.491Z,10.51
2023-03-26T14:42:20.880Z,10.67
2023-03-26T14:44:47.809Z,10.72
2023-03-26T14:47:15.882Z,10.91
2023-03-26T14:49:42.367Z,11.01
2023-03-26T14:52:08.767Z,11.17
2023-03-26T14:54:35.170Z,11.17
2023-03-26T14:57:01.601Z,11.29
2023-03-26T14:59:28.080Z,11.30
2023-03-26T15:01:54.483Z,11.42
2023-03-26T15:04:20.990Z,11.49
2023-03-26T15:07:10.297Z,11.49
2023-03-26T15:09:34.609Z,11.41
2023-03-26T15:12:12.298Z,11.55
2023-03-26T15:14:39.743Z,11.55
2023-03-26T15:17:06.119Z,11.53
2023-03-26T15:19:32.433Z,11.41
2023-03-26T15:21:58.865Z,11.43
2023-03-26T15:24:25.297Z,11.35
2023-03-26T15:26:51.698Z,11.35
2023-03-26T15:29:18.127Z,11.50
2023-03-26T15:31:44.516Z,11.47
2023-03-26T15:34:10.975Z,11.48
2023-03-26T15:36:37.368Z,11.59
2023-03-26T15:39:03.804Z,11.66
2023-03-26T15:41:30.235Z,11.72
2023-03-26T15:44:23.993Z,11.68
2023-03-26T15:46:43.220Z,11.61
2023-03-26T15:49:09.602Z,11.62
2023-03-26T15:51:46.872Z,11.81
2023-03-26T15:54:14.151Z,11.70
2023-03-26T15:56:40.625Z,11.62
2023-03-26T15:59:07.002Z,11.64
2023-03-26T16:01:33.388Z,11.61
2023-03-26T16:03:59.847Z,11.77
2023-03-26T16:06:26.299Z,11.92
2023-03-26T16:08:52.699Z,12.05
2023-03-26T16:11:19.115Z,12.09
2023-03-26T16:16:28.921Z,12.09
2023-03-26T16:18:55.356Z,11.89
2023-03-26T16:21:31.503Z,11.48
2023-03-26T16:23:59.000Z,11.65
2023-03-26T16:26:25.436Z,11.77
2023-03-26T16:28:51.953Z,12.03
2023-03-26T16:31:37.064Z,12.32
2023-03-26T16:34:04.771Z,12.90
2023-03-26T16:36:31.170Z,14.63
2023-03-26T16:38:57.557Z,17.49
2023-03-26T16:41:23.964Z,19.80
2023-03-26T16:43:50.391Z,21.39
2023-03-26T16:46:16.773Z,22.07
2023-03-26T16:48:43.184Z,19.93
2023-03-26T16:51:09.540Z,18.14
2023-03-26T16:53:36.039Z,18.39
2023-03-26T16:56:02.463Z,18.86
2023-03-26T16:58:28.889Z,18.50
2023-03-26T17:00:55.518Z,17.68
2023-03-26T17:03:22.239Z,16.70
2023-03-26T17:05:48.755Z,15.73
2023-03-26T17:08:15.245Z,14.97
2023-03-26T17:10:41.640Z,14.28
2023-03-26T17:13:08.031Z,13.78
2023-03-26T17:15:34.421Z,13.31
2023-03-26T17:18:01.014Z,13.09
2023-03-26T17:20:27.496Z,12.96
2023-03-26T17:22:53.847Z,12.84
2023-03-26T17:25:20.288Z,12.71
2023-03-26T17:27:49.160Z,12.59
2023-03-26T17:30:15.732Z,12.54
2023-03-26T17:32:42.182Z,12.45
2023-03-26T17:35:08.790Z,12.33
2023-03-26T17:37:37.342Z,12.29
2023-03-26T17:40:03.773Z,12.24
2023-03-26T17:42:30.193Z,12.15
2023-03-26T17:44:56.594Z,11.98
2023-03-26T17:47:22.955Z,11.85
2023-03-26T17:49:49.366Z,11.55
2023-03-26T17:52:15.767Z,11.71
2023-03-26T17:54:42.209Z,11.77
2023-03-26T17:57:11.177Z,11.74
2023-03-26T17:59:39.298Z,11.70
2023-03-26T18:02:08.190Z,11.63
2023-03-26T18:04:34.633Z,11.55
2023-03-26T18:07:01.225Z,11.64
2023-03-26T18:09:29.607Z,11.61
2023-03-26T18:11:56.119Z,11.58
2023-03-26T18:14:25.274Z,11.51
2023-03-26T18:16:51.839Z,11.42
2023-03-26T18:19:18.271Z,11.36
2023-03-26T18:21:44.767Z,11.23
2023-03-26T18:24:11.259Z,11.18
2023-03-26T18:26:37.691Z,11.10
2023-03-26T18:29:04.868Z,11.02
2023-03-26T18:31:31.257Z,10.99
2023-03-26T18:33:57.726Z,11.01
2023-03-26T18:36:24.093Z,11.09
2023-03-26T18:38:50.444Z,11.10
2023-03-26T18:41:20.323Z,11.13
2023-03-26T18:43:56.763Z,11.15
2023-03-26T18:46:23.414Z,11.25
2023-03-26T18:51:43.219Z,10.76
2023-03-26T18:54:16.986Z,10.53
2023-03-26T18:56:43.589Z,10.68
2023-03-26T18:59:10.059Z,10.73
2023-03-26T19:01:36.556Z,10.91
2023-03-26T19:04:03.088Z,10.96
2023-03-26T19:06:29.505Z,11.15
2023-03-26T19:08:55.971Z,10.99
2023-03-26T19:11:22.407Z,10.90
2023-03-26T19:13:48.823Z,10.43
2023-03-26T19:16:15.276Z,10.34
2023-03-26T19:18:43.949Z,10.30
2023-03-26T19:21:10.698Z,10.11
2023-03-26T19:23:37.136Z,10.10
2023-03-26T19:26:03.508Z,9.90
2023-03-26T19:28:29.895Z,9.97
2023-03-26T19:30:56.460Z,10.08
2023-03-26T19:33:23.099Z,10.17
2023-03-26T19:35:49.725Z,10.38
2023-03-26T19:38:16.154Z,10.57
2023-03-26T19:40:42.596Z,10.79
2023-03-26T19:43:09.004Z,10.94
2023-03-26T19:45:35.382Z,11.04
2023-03-26T19:50:48.381Z,11.11
2023-03-26T19:51:18.797Z,11.15
2023-03-26T19:53:17.078Z,11.15
2023-03-26T19:55:43.866Z,11.12
2023-03-26T19:58:10.346Z,11.06
2023-03-26T20:00:36.720Z,11.03
2023-03-26T20:03:03.179Z,11.04
2023-03-26T20:05:29.624Z,11.03
2023-03-26T20:07:56.016Z,10.90
2023-03-26T20:10:22.456Z,10.82
2023-03-26T20:12:48.893Z,10.78
2023-03-26T20:15:19.361Z,10.76
2023-03-26T20:17:46.224Z,10.75
2023-03-26T20:20:12.647Z,10.76
2023-03-26T20:22:39.086Z,10.75
2023-03-26T20:25:05.492Z,10.74
2023-03-26T20:27:32.006Z,10.68
2023-03-26T20:29:58.378Z,10.59
2023-03-26T20:32:27.003Z,10.57
2023-03-26T20:34:53.563Z,10.54
2023-03-26T20:37:19.972Z,10.51
2023-03-26T20:39:46.367Z,10.54
2023-03-26T20:42:14.649Z,10.50
2023-03-26T20:44:42.244Z,10.54
2023-03-26T20:47:08.690Z,10.54
2023-03-26T20:49:35.096Z,10.58
2023-03-26T20:52:02.741Z,10.62
2023-03-26T20:54:29.130Z,10.66
2023-03-26T20:56:55.490Z,10.64
2023-03-26T20:59:22.264Z,10.73
2023-03-26T21:01:49.162Z,10.71
2023-03-26T21:04:15.622Z,10.74
2023-03-26T21:06:41.978Z,10.82
2023-03-26T21:09:08.389Z,10.81
2023-03-26T21:11:34.835Z,10.82
2023-03-26T21:14:04.268Z,10.76
2023-03-26T21:16:30.661Z,10.79
2023-03-26T21:18:57.053Z,10.79
2023-03-26T21:21:23.374Z,10.76
2023-03-26T21:23:49.779Z,10.75
2023-03-26T21:26:16.128Z,10.73
2023-03-26T21:28:43.529Z,10.75
2023-03-26T21:31:09.926Z,10.73
2023-03-26T21:33:36.309Z,10.64
2023-03-26T21:36:02.835Z,10.71
2023-03-26T21:38:29.265Z,10.65
2023-03-26T21:40:58.884Z,10.77
2023-03-26T21:43:25.464Z,10.77
2023-03-26T21:45:51.891Z,10.75
2023-03-26T21:48:18.360Z,10.79
2023-03-26T21:50:44.787Z,10.84
2023-03-26T21:53:11.644Z,10.78
2023-03-26T21:55:38.059Z,10.71
2023-03-26T21:58:04.442Z,10.34
2023-03-26T22:00:42.778Z,10.45
2023-03-26T22:03:10.326Z,10.35
2023-03-26T22:05:36.783Z,10.50
2023-03-26T22:08:03.206Z,10.48
2023-03-26T22:10:29.583Z,10.55
2023-03-26T22:12:55.977Z,10.62
2023-03-26T22:15:22.366Z,10.63
2023-03-26T22:17:48.798Z,10.63
2023-03-26T22:20:15.238Z,10.65
2023-03-26T22:22:41.609Z,10.70
2023-03-26T22:25:08.225Z,10.68
2023-03-26T22:27:34.626Z,10.75
2023-03-26T22:30:10.558Z,10.77
2023-03-26T22:32:37.017Z,10.76
2023-03-26T22:35:03.418Z,10.77
2023-03-26T22:37:29.794Z,10.54
2023-03-26T22:39:56.281Z,10.64
2023-03-26T22:42:27.550Z,10.78
2023-03-26T22:44:53.908Z,10.85
2023-03-26T22:47:20.542Z,10.89
2023-03-26T22:50:07.133Z,10.88
2023-03-26T22:52:33.519Z,10.83
2023-03-26T22:54:59.917Z,10.68
2023-03-26T22:57:26.334Z,10.82
2023-03-26T22:59:52.751Z,10.85
2023-03-26T23:02:19.157Z,10.48
2023-03-26T23:04:45.623Z,10.26
2023-03-26T23:07:12.017Z,9.93
2023-03-26T23:09:38.378Z,9.58
2023-03-26T23:12:04.747Z,9.71
2023-03-26T23:14:31.213Z,9.37
2023-03-26T23:16:57.617Z,9.21
2023-03-26T23:19:23.983Z,9.49
2023-03-26T23:22:02.715Z,9.60
2023-03-26T23:24:29.337Z,9.58
2023-03-26T23:26:55.789Z,9.52
2023-03-26T23:29:22.199Z,9.42
2023-03-26T23:31:48.584Z,9.54
2023-03-26T23:34:14.971Z,9.51
2023-03-26T23:36:41.330Z,9.57
2023-03-26T23:39:07.633Z,9.64
2023-03-26T23:41:34.005Z,9.69
2023-03-26T23:44:03.481Z,9.74
2023-03-26T23:46:29.928Z,9.81
2023-03-26T23:48:56.352Z,9.82
2023-03-26T23:51:22.787Z,9.86
2023-03-26T23:53:49.413Z,9.92
2023-03-26T23:56:16.076Z,9.91
2023-03-26T23:58:42.494Z,9.92
